地図

経路データ

SID SEASON NUMBER BASIN SUBBASIN NAME ISO_TIME NATURE LAT LON WMO_WIND WMO_PRES WMO_AGENCY TRACK_TYPE DIST2LAND LANDFALL IFLAG USA_AGENCY USA_ATCF_ID USA_LAT USA_LON USA_RECORD USA_STATUS USA_WIND USA_PRES USA_SSHS USA_R34_NE USA_R34_SE USA_R34_SW USA_R34_NW USA_R50_NE USA_R50_SE USA_R50_SW USA_R50_NW USA_R64_NE USA_R64_SE USA_R64_SW USA_R64_NW USA_POCI USA_ROCI USA_RMW USA_EYE TOKYO_LAT TOKYO_LON TOKYO_GRADE TOKYO_WIND TOKYO_PRES TOKYO_R50_DIR TOKYO_R50_LONG TOKYO_R50_SHORT TOKYO_R30_DIR TOKYO_R30_LONG TOKYO_R30_SHORT TOKYO_LAND CMA_LAT CMA_LON CMA_CAT CMA_WIND CMA_PRES HKO_LAT HKO_LON HKO_CAT HKO_WIND HKO_PRES NEWDELHI_LAT NEWDELHI_LON NEWDELHI_GRADE NEWDELHI_WIND NEWDELHI_PRES NEWDELHI_CI NEWDELHI_DP NEWDELHI_POCI REUNION_LAT REUNION_LON REUNION_TYPE REUNION_WIND REUNION_PRES REUNION_TNUM REUNION_CI REUNION_RMW REUNION_R34_NE REUNION_R34_SE REUNION_R34_SW REUNION_R34_NW REUNION_R50_NE REUNION_R50_SE REUNION_R50_SW REUNION_R50_NW REUNION_R64_NE REUNION_R64_SE REUNION_R64_SW REUNION_R64_NW BOM_LAT BOM_LON BOM_TYPE BOM_WIND BOM_PRES BOM_TNUM BOM_CI BOM_RMW BOM_R34_NE BOM_R34_SE BOM_R34_SW BOM_R34_NW BOM_R50_NE BOM_R50_SE BOM_R50_SW BOM_R50_NW BOM_R64_NE BOM_R64_SE BOM_R64_SW BOM_R64_NW BOM_ROCI BOM_POCI BOM_EYE BOM_POS_METHOD BOM_PRES_METHOD NADI_LAT NADI_LON NADI_CAT NADI_WIND NADI_PRES WELLINGTON_LAT WELLINGTON_LON WELLINGTON_WIND WELLINGTON_PRES DS824_LAT DS824_LON DS824_STAGE DS824_WIND DS824_PRES TD9636_LAT TD9636_LON TD9636_STAGE TD9636_WIND TD9636_PRES TD9635_LAT TD9635_LON TD9635_WIND TD9635_PRES TD9635_ROCI NEUMANN_LAT NEUMANN_LON NEUMANN_CLASS NEUMANN_WIND NEUMANN_PRES MLC_LAT MLC_LON MLC_CLASS MLC_WIND MLC_PRES USA_GUST BOM_GUST BOM_GUST_PER REUNION_GUST REUNION_GUST_PER USA_SEAHGT USA_SEARAD_NE USA_SEARAD_SE USA_SEARAD_SW USA_SEARAD_NW STORM_SPEED STORM_DIR
1968259N32287 1968 91 NA NA NOT_NAMED 1968-09-14 12:00:00 SS 31.5000 -73.0000 20 1012 hurdat_atl main 482 480 O_____________ hurdat_atl AL091968 31.5000 -73.0000 SD 20 1012 -2 8 68
1968259N32287 1968 91 NA NA NOT_NAMED 1968-09-14 15:00:00 SS 31.6527 -72.5678 main 492 492 P_____________ AL091968 31.6527 -72.5678 SD 20 1011 -2 8 69
1968259N32287 1968 91 NA NA NOT_NAMED 1968-09-14 18:00:00 SS 31.8000 -72.1000 20 hurdat_atl main 520 520 I_____________ hurdat_atl AL091968 31.8000 -72.1000 SD 20 1010 -2 9 71
1968259N32287 1968 91 NA NA NOT_NAMED 1968-09-14 21:00:00 SS 31.9423 -71.5722 main 548 548 P_____________ AL091968 31.9423 -71.5722 SD 20 1009 -2 10 72
1968259N32287 1968 91 NA NA NOT_NAMED 1968-09-15 00:00:00 SS 32.1000 -71.0000 20 1009 hurdat_atl main 581 581 O_____________ hurdat_atl AL091968 32.1000 -71.0000 SD 20 1009 -2 10 71
1968259N32287 1968 91 NA NA NOT_NAMED 1968-09-15 03:00:00 SS 32.2847 -70.4147 main 609 609 P_____________ AL091968 32.2847 -70.4147 SD 22 1009 -2 11 68
1968259N32287 1968 91 NA NA NOT_NAMED 1968-09-15 06:00:00 SS 32.5000 -69.8000 25 hurdat_atl main 639 639 I_____________ hurdat_atl AL091968 32.5000 -69.8000 SD 25 1009 -2 12 66
1968259N32287 1968 91 NA NA NOT_NAMED 1968-09-15 09:00:00 SS 32.7727 -69.1281 main 675 675 P_____________ AL091968 32.7727 -69.1281 SD 25 1009 -2 12 65
1968259N32287 1968 91 NA NA NOT_NAMED 1968-09-15 12:00:00 SS 33.0000 -68.5000 25 1009 hurdat_atl main 712 712 O_____________ hurdat_atl AL091968 33.0000 -68.5000 SD 25 1009 -2 10 73
1968259N32287 1968 91 NA NA NOT_NAMED 1968-09-15 15:00:00 SS 33.0572 -67.9966 main 749 749 P_____________ AL091968 33.0572 -67.9966 SD 27 1008 -2 8 82
1968259N32287 1968 91 NA NA NOT_NAMED 1968-09-15 18:00:00 SS 33.1000 -67.6000 30 hurdat_atl main 782 782 I_____________ hurdat_atl AL091968 33.1000 -67.6000 SD 30 1007 -2 7 77
1968259N32287 1968 91 NA NA NOT_NAMED 1968-09-15 21:00:00 SS 33.2099 -67.1885 main 812 812 P_____________ AL091968 33.2099 -67.1885 SD 30 1006 -2 6 51
1968259N32287 1968 91 NA NA NOT_NAMED 1968-09-16 00:00:00 SS 33.5000 -67.0000 30 1006 hurdat_atl main 816 777 O_____________ hurdat_atl AL091968 33.5000 -67.0000 SD 30 1006 -2 9 358
1968259N32287 1968 91 NA NA NOT_NAMED 1968-09-16 03:00:00 SS 34.0902 -67.2233 main 777 723 P_____________ AL091968 34.0902 -67.2233 SD 32 1005 -2 14 339
1968259N32287 1968 91 NA NA NOT_NAMED 1968-09-16 06:00:00 SS 34.8000 -67.6000 35 hurdat_atl main 723 686 I_____________ hurdat_atl AL091968 34.8000 -67.6000 SS 35 1004 -2 14 335
1968259N32287 1968 91 NA NA NOT_NAMED 1968-09-16 09:00:00 SS 35.3994 -67.9548 main 677 655 P_____________ AL091968 35.3994 -67.9548 SS 37 1003 -2 12 345
1968259N32287 1968 91 NA NA NOT_NAMED 1968-09-16 12:00:00 SS 36.0000 -68.0000 40 1003 hurdat_atl main 655 606 O_____________ hurdat_atl AL091968 36.0000 -68.0000 SS 40 1003 -2 13 20
1968259N32287 1968 91 NA NA NOT_NAMED 1968-09-16 15:00:00 SS 36.6510 -67.3950 main 599 573 P_____________ AL091968 36.6510 -67.3950 SS 42 1001 -2 18 43
1968259N32287 1968 91 NA NA NOT_NAMED 1968-09-16 18:00:00 SS 37.3000 -66.5000 45 hurdat_atl main 573 553 I_____________ hurdat_atl AL091968 37.3000 -66.5000 SS 45 1000 -2 19 46
1968259N32287 1968 91 NA NA NOT_NAMED 1968-09-16 21:00:00 SS 37.9525 -65.7205 main 550 545 P_____________ AL091968 37.9525 -65.7205 SS 47 998 -2 17 45
1968259N32287 1968 91 NA NA NOT_NAMED 1968-09-17 00:00:00 SS 38.5000 -65.0000 50 997 hurdat_atl main 553 516 O_____________ hurdat_atl AL091968 38.5000 -65.0000 SS 50 997 -2 14 47
1968259N32287 1968 91 NA NA NOT_NAMED 1968-09-17 03:00:00 SS 38.8969 -64.4041 main 517 499 P_____________ AL091968 38.8969 -64.4041 SS 50 996 -2 10 55
1968259N32287 1968 91 NA NA NOT_NAMED 1968-09-17 06:00:00 SS 39.1000 -63.9000 50 hurdat_atl main 503 503 I_____________ hurdat_atl AL091968 39.1000 -63.9000 SS 50 996 -2 8 75
1968259N32287 1968 91 NA NA NOT_NAMED 1968-09-17 09:00:00 SS 39.1099 -63.4040 main 514 514 P_____________ AL091968 39.1099 -63.4040 SS 50 995 -2 7 98
1968259N32287 1968 91 NA NA NOT_NAMED 1968-09-17 12:00:00 SS 39.0000 -63.0000 50 995 hurdat_atl main 536 536 O_____________ hurdat_atl AL091968 39.0000 -63.0000 SS 50 995 -2 6 110
1968259N32287 1968 91 NA NA NOT_NAMED 1968-09-17 15:00:00 SS 38.9147 -62.7201 main 555 555 P_____________ AL091968 38.9147 -62.7201 SS 52 994 -2 4 117
1968259N32287 1968 91 NA NA NOT_NAMED 1968-09-17 18:00:00 SS 38.8000 -62.5000 55 hurdat_atl main 572 572 I_____________ hurdat_atl AL091968 38.8000 -62.5000 SS 55 994 -2 5 126
1968259N32287 1968 91 NA NA NOT_NAMED 1968-09-17 21:00:00 SS 38.6499 -62.2499 main 603 603 P_____________ AL091968 38.6499 -62.2499 SS 57 993 -2 5 128
1968259N32287 1968 91 NA NA NOT_NAMED 1968-09-18 00:00:00 SS 38.5000 -62.0000 60 993 hurdat_atl main 620 620 O_____________ hurdat_atl AL091968 38.5000 -62.0000 SS 60 993 -2 5 123
1968259N32287 1968 91 NA NA NOT_NAMED 1968-09-18 03:00:00 SS 38.3999 -61.7502 main 638 638 P_____________ AL091968 38.3999 -61.7502 SS 60 993 -2 4 117
1968259N32287 1968 91 NA NA NOT_NAMED 1968-09-18 06:00:00 SS 38.3000 -61.5000 60 hurdat_atl main 660 660 I_____________ hurdat_atl AL091968 38.3000 -61.5000 SS 60 993 -2 5 123
1968259N32287 1968 91 NA NA NOT_NAMED 1968-09-18 09:00:00 SS 38.1499 -61.2499 main 692 692 P_____________ AL091968 38.1499 -61.2499 SS 60 993 -2 5 127
1968259N32287 1968 91 NA NA NOT_NAMED 1968-09-18 12:00:00 SS 38.0000 -61.0000 60 993 hurdat_atl main 710 710 O_____________ hurdat_atl AL091968 38.0000 -61.0000 SS 60 993 -2 5 122
1968259N32287 1968 91 NA NA NOT_NAMED 1968-09-18 15:00:00 SS 37.8999 -60.7502 main 728 728 P_____________ AL091968 37.8999 -60.7502 SS 60 993 -2 4 117
1968259N32287 1968 91 NA NA NOT_NAMED 1968-09-18 18:00:00 SS 37.8000 -60.5000 60 hurdat_atl main 751 751 I_____________ hurdat_atl AL091968 37.8000 -60.5000 SS 60 993 -2 5 122
1968259N32287 1968 91 NA NA NOT_NAMED 1968-09-18 21:00:00 SS 37.6499 -60.2500 main 784 784 P_____________ AL091968 37.6499 -60.2500 SS 60 993 -2 5 127
1968259N32287 1968 91 NA NA NOT_NAMED 1968-09-19 00:00:00 SS 37.5000 -60.0000 60 993 hurdat_atl main 802 802 O_____________ hurdat_atl AL091968 37.5000 -60.0000 SS 60 993 -2 5 122
1968259N32287 1968 91 NA NA NOT_NAMED 1968-09-19 03:00:00 SS 37.3999 -59.7502 main 821 821 P_____________ AL091968 37.3999 -59.7502 SS 60 992 -2 4 117
1968259N32287 1968 91 NA NA NOT_NAMED 1968-09-19 06:00:00 SS 37.3000 -59.5000 60 hurdat_atl main 845 845 I_____________ hurdat_atl AL091968 37.3000 -59.5000 SS 60 991 -2 4 121
1968259N32287 1968 91 NA NA NOT_NAMED 1968-09-19 09:00:00 SS 37.1870 -59.2958 main 864 864 P_____________ AL091968 37.1870 -59.2958 SS 60 990 -2 5 127
1968259N32287 1968 91 NA NA NOT_NAMED 1968-09-19 12:00:00 SS 37.0000 -59.0000 60 990 hurdat_atl main 897 897 O_____________ hurdat_atl AL091968 37.0000 -59.0000 SS 60 990 -2 8 130
1968259N32287 1968 91 NA NA NOT_NAMED 1968-09-19 15:00:00 SS 36.6867 -58.5555 main 945 945 P_____________ AL091968 36.6867 -58.5555 SS 60 989 -2 11 128
1968259N32287 1968 91 NA NA NOT_NAMED 1968-09-19 18:00:00 SS 36.3000 -57.9000 60 hurdat_atl main 1018 1018 I_____________ hurdat_atl AL091968 36.3000 -57.9000 SS 60 988 -2 14 125
1968259N32287 1968 91 NA NA NOT_NAMED 1968-09-19 21:00:00 SS 35.8670 -57.1216 main 1087 1087 P_____________ AL091968 35.8670 -57.1216 SS 60 987 -2 17 117
1968259N32287 1968 91 NA NA NOT_NAMED 1968-09-20 00:00:00 SS 35.5000 -56.0000 60 987 hurdat_atl main 1161 1161 O_____________ hurdat_atl AL091968 35.5000 -56.0000 SS 60 987 -2 23 105
1968259N32287 1968 91 NA NA NOT_NAMED 1968-09-20 03:00:00 SS 35.2685 -54.4258 main 1237 1237 P_____________ AL091968 35.2685 -54.4258 SS 62 986 -2 28 96
1968259N32287 1968 91 NA NA NOT_NAMED 1968-09-20 06:00:00 SS 35.2000 -52.6000 65 hurdat_atl main 1269 1269 I_____________ hurdat_atl AL091968 35.2000 -52.6000 SS 65 986 -2 30 92
1968259N32287 1968 91 NA NA NOT_NAMED 1968-09-20 09:00:00 SS 35.1715 -50.7283 main 1285 1281 P_____________ AL091968 35.1715 -50.7283 SS 65 985 -2 30 84
1968259N32287 1968 91 NA NA NOT_NAMED 1968-09-20 12:00:00 SS 35.5000 -49.0000 65 985 hurdat_atl main 1283 1222 O_____________ hurdat_atl AL091968 35.5000 -49.0000 SS 65 985 -2 28 64
1968259N32287 1968 91 NA NA NOT_NAMED 1968-09-20 15:00:00 SS 36.4278 -47.5982 main 1225 1147 P_____________ AL091968 36.4278 -47.5982 SS 67 983 -2 29 44
1968259N32287 1968 91 NA NA NOT_NAMED 1968-09-20 18:00:00 SS 37.6000 -46.5000 70 hurdat_atl main 1141 1078 I_____________ hurdat_atl AL091968 37.6000 -46.5000 SS 70 982 -2 27 35
1968259N32287 1968 91 NA NA NOT_NAMED 1968-09-20 21:00:00 SS 38.6759 -45.6142 main 1073 1030 P_____________ AL091968 38.6759 -45.6142 SS 70 980 -2 22 32
1968259N32287 1968 91 NA NA NOT_NAMED 1968-09-21 00:00:00 SS 39.5000 -45.0000 70 979 hurdat_atl main 1030 1020 O_____________ hurdat_atl AL091968 39.5000 -45.0000 SS 70 979 -2 14 35
1968259N32287 1968 91 NA NA NOT_NAMED 1968-09-21 03:00:00 SS 39.8116 -44.5788 main 1025 1022 P_____________ AL091968 39.8116 -44.5788 SS 70 979 -2 7 53
1968259N32287 1968 91 NA NA NOT_NAMED 1968-09-21 06:00:00 SS 39.9000 -44.3000 70 hurdat_atl main 1033 1028 I_____________ hurdat_atl AL091968 39.9000 -44.3000 SS 70 980 -2 5 57
1968259N32287 1968 91 NA NA NOT_NAMED 1968-09-21 09:00:00 SS 40.1074 -43.9924 main 1033 1029 P_____________ AL091968 40.1074 -43.9924 SS 67 981 -2 6 49
1968259N32287 1968 91 NA NA NOT_NAMED 1968-09-21 12:00:00 SS 40.3000 -43.7000 65 982 hurdat_atl main 1035 1033 O_____________ hurdat_atl AL091968 40.3000 -43.7000 SS 65 982 -2 6 53
1968259N32287 1968 91 NA NA NOT_NAMED 1968-09-21 15:00:00 SS 40.4499 -43.3997 main 1045 1037 P_____________ AL091968 40.4499 -43.3997 SS 65 982 -2 5 57
1968259N32287 1968 91 NA NA NOT_NAMED 1968-09-21 18:00:00 SS 40.6000 -43.1000 65 hurdat_atl main 1048 1045 I_____________ hurdat_atl AL091968 40.6000 -43.1000 SS 65 983 -2 6 53
1968259N32287 1968 91 NA NA NOT_NAMED 1968-09-21 21:00:00 SS 40.7847 -42.8221 main 1051 1049 P_____________ AL091968 40.7847 -42.8221 SS 62 983 -2 6 49
1968259N32287 1968 91 NA NA NOT_NAMED 1968-09-22 00:00:00 SS 41.0000 -42.5000 60 984 hurdat_atl main 1055 1054 O_____________ hurdat_atl AL091968 41.0000 -42.5000 SS 60 984 -2 7 50
1968259N32287 1968 91 NA NA NOT_NAMED 1968-09-22 03:00:00 SS 41.2424 -42.0873 main 1067 1060 P_____________ AL091968 41.2424 -42.0873 SS 60 984 -2 8 54
1968259N32287 1968 91 NA NA NOT_NAMED 1968-09-22 06:00:00 SS 41.5000 -41.6000 60 hurdat_atl main 1079 1079 I_____________ hurdat_atl AL091968 41.5000 -41.6000 SS 60 985 -2 9 55
1968259N32287 1968 91 NA NA NOT_NAMED 1968-09-22 09:00:00 SS 41.7722 -41.0802 main 1093 1093 P_____________ AL091968 41.7722 -41.0802 SS 60 985 -2 10 59
1968259N32287 1968 91 NA NA NOT_NAMED 1968-09-22 12:00:00 SS 42.0000 -40.5000 60 986 hurdat_atl main 1122 1122 O_____________ hurdat_atl AL091968 42.0000 -40.5000 SS 60 986 -2 10 69
1968259N32287 1968 91 NA NA NOT_NAMED 1968-09-22 15:00:00 SS 42.1300 -39.8570 main 1158 1158 P_____________ AL091968 42.1300 -39.8570 SS 57 987 -2 10 78
1968259N32287 1968 91 NA NA NOT_NAMED 1968-09-22 18:00:00 SS 42.2000 -39.2000 55 hurdat_atl main 1201 1201 I_____________ hurdat_atl AL091968 42.2000 -39.2000 SS 55 989 -2 9 82
1968259N32287 1968 91 NA NA NOT_NAMED 1968-09-22 21:00:00 SS 42.2572 -38.5847 main 1238 1238 P_____________ AL091968 42.2572 -38.5847 SS 55 990 -2 9 84
1968259N32287 1968 91 NA NA NOT_NAMED 1968-09-23 00:00:00 SS 42.3000 -38.0000 55 992 hurdat_atl main 1280 1280 O_____________ hurdat_atl AL091968 42.3000 -38.0000 SS 55 992 -2 9 84
1968259N32287 1968 91 NA NA NOT_NAMED 1968-09-23 03:00:00 SS 42.3498 -37.4274 main 1322 1316 P_____________ AL091968 42.3498 -37.4274 SS 52 992 -2 8 83
1968259N32287 1968 91 NA NA NOT_NAMED 1968-09-23 06:00:00 SS 42.4000 -36.9000 50 hurdat_atl main 1351 1351 I_____________ hurdat_atl AL091968 42.4000 -36.9000 SS 50 993 -2 7 82
1968259N32287 1968 91 NA NA NOT_NAMED 1968-09-23 09:00:00 SS 42.4570 -36.4426 main 1381 1381 P_____________ AL091968 42.4570 -36.4426 SS 47 994 -2 7 81
1968259N32287 1968 91 NA NA NOT_NAMED 1968-09-23 12:00:00 ET 42.5000 -36.0000 45 995 hurdat_atl main 1410 1410 O_____________ hurdat_atl AL091968 42.5000 -36.0000 EX 45 995 -4 7 86
1968259N32287 1968 91 NA NA NOT_NAMED 1968-09-23 15:00:00 ET 42.5106 -35.5149 main 1446 1446 P_____________ AL091968 42.5106 -35.5149 EX 42 996 -4 7 90
1968259N32287 1968 91 NA NA NOT_NAMED 1968-09-23 18:00:00 ET 42.5000 -35.0000 40 997 hurdat_atl main 1482 O_____________ hurdat_atl AL091968 42.5000 -35.0000 EX 40 997 -4 8 92

IBTrACS Databaseについて

本データベースは、米国NOAAが公開する1842年以降の世界の熱帯低気圧のベストトラックデータアーカイブInternational Best Track Archive for Climate Stewardship (IBTrACS)を、ウェブで閲覧しやすい形式に変換したものです。

最終更新日:2021-12-06